Time;durP1;ratioP1;P1;durP2;ratioP2;P2;SDS_P1;SDS_P2;PMS_P1;PMS_P2;Temp;Humidity;BMP_temperature;BMP_pressure;BME280_temperature;BME280_humidity;BME280_pressure;Samples;Min_cycle;Max_cycle;Signal;HPM_P1;HPM_P2
2024/02/05 00:01:05;;;;;;;2.07;0.40;;;;;;;;;;5032321;28;20049;-60
2024/02/05 00:03:30;;;;;;;1.03;0.43;;;;;;;;;;5032281;28;20021;-58
2024/02/05 00:05:55;;;;;;;1.10;0.40;;;;;;;;;;5032876;28;20397;-57
2024/02/05 00:08:20;;;;;;;0.43;0.30;;;;;;;;;;5024707;28;20481;-58
2024/02/05 00:10:46;;;;;;;1.58;0.50;;;;;;;;;;5024132;28;20032;-58
2024/02/05 00:13:13;;;;;;;1.17;0.47;;;;;;;;;;5030366;28;20026;-58
2024/02/05 00:15:38;;;;;;;3.22;0.40;;;;;;;;;;5017830;28;20079;-59
2024/02/05 00:18:03;;;;;;;4.68;0.55;;;;;;;;;;5030915;28;20021;-57
2024/02/05 00:20:28;;;;;;;2.63;0.30;;;;;;;;;;5017927;28;20044;-57
2024/02/05 00:22:54;;;;;;;0.90;0.30;;;;;;;;;;5013701;28;20502;-58
2024/02/05 00:25:22;;;;;;;0.60;0.20;;;;;;;;;;5024082;28;20033;-58
2024/02/05 00:27:47;;;;;;;0.43;0.20;;;;;;;;;;5021903;28;20439;-58
2024/02/05 00:30:13;;;;;;;0.90;0.28;;;;;;;;;;5029812;28;20367;-58
2024/02/05 00:32:39;;;;;;;3.53;0.30;;;;;;;;;;5030124;28;20033;-59
2024/02/05 00:35:08;;;;;;;0.47;0.30;;;;;;;;;;5032021;28;20013;-58
2024/02/05 00:37:33;;;;;;;0.30;0.20;;;;;;;;;;5028438;28;20040;-58
2024/02/05 00:39:58;;;;;;;0.67;0.23;;;;;;;;;;5032073;28;20025;-58
2024/02/05 00:42:23;;;;;;;0.57;0.20;;;;;;;;;;5030941;28;20025;-58
2024/02/05 00:44:48;;;;;;;0.68;0.20;;;;;;;;;;5015972;28;20511;-59
2024/02/05 00:47:13;;;;;;;0.40;0.20;;;;;;;;;;5023573;28;20022;-58
2024/02/05 00:49:39;;;;;;;1.33;0.63;;;;;;;;;;5034406;28;20022;-58
2024/02/05 00:52:04;;;;;;;0.40;0.20;;;;;;;;;;5051651;28;20047;-59
2024/02/05 00:54:29;;;;;;;2.25;0.65;;;;;;;;;;5048446;28;20493;-58
2024/02/05 00:56:55;;;;;;;0.38;0.10;;;;;;;;;;5053263;28;20029;-58
2024/02/05 00:59:20;;;;;;;1.05;0.30;;;;;;;;;;5024105;28;20062;-59
2024/02/05 01:01:45;;;;;;;1.90;0.30;;;;;;;;;;5017839;28;20034;-58
2024/02/05 01:04:10;;;;;;;7.93;2.47;;;;;;;;;;5034025;28;20025;-60
2024/02/05 01:06:36;;;;;;;1.15;0.20;;;;;;;;;;5034456;28;20033;-59
2024/02/05 01:09:08;;;;;;;6.00;0.40;;;;;;;;;;5037292;28;20021;-59
2024/02/05 01:11:33;;;;;;;;;;;;;;;;;;5029083;28;20393;-59
2024/02/05 01:13:58;;;;;;;4.32;1.30;;;;;;;;;;5029685;28;20211;-58
2024/02/05 01:16:24;;;;;;;2.10;0.30;;;;;;;;;;5028557;28;20443;-58
2024/02/05 01:18:49;;;;;;;0.20;0.10;;;;;;;;;;5027623;28;20025;-58
2024/02/05 01:21:14;;;;;;;0.80;0.40;;;;;;;;;;5033670;28;20026;-57
2024/02/05 01:23:39;;;;;;;1.58;0.20;;;;;;;;;;5018183;28;20503;-57
2024/02/05 01:26:04;;;;;;;0.28;0.20;;;;;;;;;;5032458;28;20029;-59
2024/02/05 01:28:29;;;;;;;0.80;0.10;;;;;;;;;;5029788;28;20032;-59
2024/02/05 01:30:55;;;;;;;2.00;0.30;;;;;;;;;;5028849;28;20476;-58
2024/02/05 01:33:20;;;;;;;0.73;0.20;;;;;;;;;;5023678;28;20080;-59
2024/02/05 01:35:45;;;;;;;0.38;0.15;;;;;;;;;;5020743;28;20026;-60
2024/02/05 01:38:10;;;;;;;0.40;0.20;;;;;;;;;;5030200;28;20063;-58
2024/02/05 01:40:36;;;;;;;1.42;0.22;;;;;;;;;;5022085;28;20065;-58
2024/02/05 01:43:02;;;;;;;0.25;0.13;;;;;;;;;;5020443;28;20014;-59
2024/02/05 01:45:27;;;;;;;0.33;0.10;;;;;;;;;;5027434;28;20028;-58
2024/02/05 01:47:52;;;;;;;0.80;0.40;;;;;;;;;;5026606;28;20096;-57
2024/02/05 01:50:18;;;;;;;4.70;1.13;;;;;;;;;;5033253;28;20022;-58
2024/02/05 01:52:46;;;;;;;0.20;0.10;;;;;;;;;;5033307;28;20024;-58
2024/02/05 01:55:14;;;;;;;1.58;0.20;;;;;;;;;;5038353;28;20033;-58
2024/02/05 01:57:40;;;;;;;7.78;0.30;;;;;;;;;;5039556;28;20017;-58
2024/02/05 02:00:06;;;;;;;1.00;0.27;;;;;;;;;;5046893;28;20205;-58
2024/02/05 02:02:32;;;;;;;0.68;0.30;;;;;;;;;;5033376;28;20079;-58
2024/02/05 02:04:58;;;;;;;0.68;0.20;;;;;;;;;;5032338;28;20097;-58
2024/02/05 02:07:23;;;;;;;0.40;0.10;;;;;;;;;;5016795;28;20088;-57
2024/02/05 02:09:49;;;;;;;0.10;0.08;;;;;;;;;;5030425;28;20033;-57
2024/02/05 02:12:14;;;;;;;1.98;0.20;;;;;;;;;;5030685;28;20091;-58
2024/02/05 02:14:39;;;;;;;0.52;0.22;;;;;;;;;;5031556;28;20026;-58
2024/02/05 02:17:04;;;;;;;1.17;0.17;;;;;;;;;;5021968;28;20060;-57
2024/02/05 02:19:41;;;;;;;0.37;0.10;;;;;;;;;;5032861;28;20021;-57
2024/02/05 02:22:31;;;;;;;2.95;1.13;;;;;;;;;;5030919;28;20471;-56
2024/02/05 02:24:56;;;;;;;0.20;0.10;;;;;;;;;;5023959;28;20029;-56
2024/02/05 02:27:21;;;;;;;0.10;0.00;;;;;;;;;;5029822;28;20033;-57
2024/02/05 02:29:47;;;;;;;2.40;0.20;;;;;;;;;;5021090;28;20030;-58
2024/02/05 02:32:25;;;;;;;3.35;0.30;;;;;;;;;;5028973;28;20045;-58
2024/02/05 02:34:52;;;;;;;1.02;0.20;;;;;;;;;;5030285;28;20029;-57
2024/02/05 02:37:19;;;;;;;1.08;0.25;;;;;;;;;;5031654;28;20504;-57
2024/02/05 02:40:09;;;;;;;0.30;0.10;;;;;;;;;;5024036;28;20436;-56
2024/02/05 02:42:34;;;;;;;0.98;0.20;;;;;;;;;;5029641;28;20437;-57
2024/02/05 02:45:01;;;;;;;0.30;0.10;;;;;;;;;;5030882;28;20053;-58
2024/02/05 02:47:26;;;;;;;1.35;0.22;;;;;;;;;;5019022;28;20030;-58
2024/02/05 02:49:51;;;;;;;0.85;0.10;;;;;;;;;;5012546;28;20486;-58
2024/02/05 02:52:16;;;;;;;0.43;0.10;;;;;;;;;;5018295;28;20076;-57
2024/02/05 02:54:41;;;;;;;0.17;0.03;;;;;;;;;;5026667;28;20075;-57
2024/02/05 02:57:07;;;;;;;0.83;0.20;;;;;;;;;;5027185;28;20028;-58
2024/02/05 02:59:32;;;;;;;0.67;0.53;;;;;;;;;;5012486;28;20133;-58
2024/02/05 03:01:57;;;;;;;1.65;0.20;;;;;;;;;;5012293;28;20093;-57
2024/02/05 03:04:22;;;;;;;2.85;0.20;;;;;;;;;;5022061;28;20028;-57
2024/02/05 03:06:47;;;;;;;0.75;0.20;;;;;;;;;;5030412;28;20022;-58
2024/02/05 03:09:14;;;;;;;1.27;0.08;;;;;;;;;;5022937;28;20073;-57
2024/02/05 03:11:39;;;;;;;1.85;0.15;;;;;;;;;;5025523;28;20112;-57
2024/02/05 03:14:04;;;;;;;0.20;0.10;;;;;;;;;;5023395;28;20105;-57
2024/02/05 03:16:31;;;;;;;2.20;0.30;;;;;;;;;;5016046;28;20025;-58
2024/02/05 03:18:56;;;;;;;0.30;0.13;;;;;;;;;;5015700;28;20034;-57
2024/02/05 03:21:21;;;;;;;2.45;0.10;;;;;;;;;;5032006;28;20040;-57
2024/02/05 03:23:46;;;;;;;0.55;0.20;;;;;;;;;;5030764;28;20112;-57
2024/02/05 03:26:11;;;;;;;0.90;0.10;;;;;;;;;;5034109;28;20037;-58
2024/02/05 03:28:37;;;;;;;0.13;0.00;;;;;;;;;;5030910;28;20521;-58
2024/02/05 03:31:06;;;;;;;0.47;0.20;;;;;;;;;;5030839;28;20040;-58
2024/02/05 03:33:31;;;;;;;2.25;0.10;;;;;;;;;;5032008;28;20025;-56
2024/02/05 03:35:57;;;;;;;2.23;0.17;;;;;;;;;;5028147;28;20024;-58
2024/02/05 03:38:22;;;;;;;0.35;0.10;;;;;;;;;;5028738;28;20398;-58
2024/02/05 03:40:47;;;;;;;0.65;0.20;;;;;;;;;;5020663;28;20501;-58
2024/02/05 03:43:13;;;;;;;1.07;0.20;;;;;;;;;;5012818;28;20042;-57
2024/02/05 03:45:38;;;;;;;0.68;0.10;;;;;;;;;;5018587;28;20030;-57
2024/02/05 03:48:03;;;;;;;0.73;0.10;;;;;;;;;;5012439;28;20110;-57
2024/02/05 03:50:30;;;;;;;1.73;0.28;;;;;;;;;;5023169;28;20030;-56
2024/02/05 03:52:55;;;;;;;0.25;0.10;;;;;;;;;;5030923;28;20402;-58
2024/02/05 03:55:21;;;;;;;0.83;0.40;;;;;;;;;;5030849;28;20064;-56
2024/02/05 03:57:56;;;;;;;3.22;0.30;;;;;;;;;;5030654;28;20021;-57
2024/02/05 04:00:21;;;;;;;0.47;0.17;;;;;;;;;;5023864;28;20036;-59
2024/02/05 04:02:47;;;;;;;0.57;0.20;;;;;;;;;;5014822;28;20026;-57
2024/02/05 04:05:12;;;;;;;2.92;0.30;;;;;;;;;;5028579;28;20025;-57
2024/02/05 04:07:37;;;;;;;0.73;0.20;;;;;;;;;;5025334;28;20022;-57
2024/02/05 04:10:02;;;;;;;16.40;4.20;;;;;;;;;;5012401;28;20029;-58
2024/02/05 04:12:28;;;;;;;1.23;0.20;;;;;;;;;;5029190;28;20025;-57
2024/02/05 04:14:53;;;;;;;1.65;0.20;;;;;;;;;;5027016;28;20972;-57
2024/02/05 04:17:18;;;;;;;0.30;0.20;;;;;;;;;;5031583;28;20030;-57
2024/02/05 04:19:44;;;;;;;0.82;0.20;;;;;;;;;;5030814;28;20511;-56
2024/02/05 04:22:09;;;;;;;0.90;0.47;;;;;;;;;;5031305;28;20164;-57
2024/02/05 04:24:35;;;;;;;0.77;0.30;;;;;;;;;;5023269;28;21099;-57
2024/02/05 04:27:00;;;;;;;0.77;0.30;;;;;;;;;;5011317;28;20533;-56
2024/02/05 04:29:25;;;;;;;1.50;0.30;;;;;;;;;;5017071;28;20036;-57
2024/02/05 04:31:50;;;;;;;0.60;0.20;;;;;;;;;;5027123;28;20107;-56
2024/02/05 04:34:16;;;;;;;1.48;0.10;;;;;;;;;;5033302;28;20025;-58
2024/02/05 04:36:41;;;;;;;0.52;0.20;;;;;;;;;;5030930;28;20105;-57
2024/02/05 04:39:10;;;;;;;0.77;0.20;;;;;;;;;;5030853;28;20029;-57
2024/02/05 04:41:35;;;;;;;0.65;0.20;;;;;;;;;;5029771;28;20397;-58
2024/02/05 04:44:01;;;;;;;1.20;0.30;;;;;;;;;;5026383;28;20037;-57
2024/02/05 04:46:26;;;;;;;0.70;0.20;;;;;;;;;;5026856;28;20025;-58
2024/02/05 04:48:51;;;;;;;1.00;0.30;;;;;;;;;;5030424;28;20135;-56
2024/02/05 04:51:16;;;;;;;1.03;0.40;;;;;;;;;;5030583;28;20097;-57
2024/02/05 04:53:41;;;;;;;1.52;0.30;;;;;;;;;;5031135;28;20133;-57
2024/02/05 04:56:07;;;;;;;0.60;0.20;;;;;;;;;;5031489;28;20401;-57
2024/02/05 04:58:32;;;;;;;1.10;0.13;;;;;;;;;;5025516;28;20045;-58
2024/02/05 05:00:57;;;;;;;1.25;0.25;;;;;;;;;;5032130;28;20040;-58
2024/02/05 05:03:22;;;;;;;0.63;0.28;;;;;;;;;;5024767;28;20473;-57
2024/02/05 05:05:47;;;;;;;1.02;0.28;;;;;;;;;;5032432;28;20009;-57
2024/02/05 05:08:13;;;;;;;1.55;0.30;;;;;;;;;;5032852;28;20044;-57
2024/02/05 05:10:38;;;;;;;1.23;0.20;;;;;;;;;;5031284;28;20017;-57
2024/02/05 05:13:05;;;;;;;0.60;0.30;;;;;;;;;;5030162;28;20018;-58
2024/02/05 05:15:30;;;;;;;2.10;0.40;;;;;;;;;;5030986;28;20017;-59
2024/02/05 05:17:55;;;;;;;0.30;0.30;;;;;;;;;;5025383;28;20095;-59
2024/02/05 05:20:20;;;;;;;0.80;0.40;;;;;;;;;;5028843;28;20025;-57
2024/02/05 05:22:45;;;;;;;1.63;0.30;;;;;;;;;;5028305;28;20025;-57
2024/02/05 05:25:10;;;;;;;1.42;0.55;;;;;;;;;;5025162;28;20596;-56
2024/02/05 05:27:36;;;;;;;1.63;0.40;;;;;;;;;;5025920;28;20025;-58
2024/02/05 05:30:01;;;;;;;1.85;0.30;;;;;;;;;;5025921;28;20110;-57
2024/02/05 05:32:26;;;;;;;0.60;0.40;;;;;;;;;;5025912;28;20057;-57
2024/02/05 05:34:51;;;;;;;1.20;0.40;;;;;;;;;;5026928;28;20470;-58
2024/02/05 05:37:16;;;;;;;1.95;0.40;;;;;;;;;;5024918;28;20038;-58
2024/02/05 05:39:42;;;;;;;1.23;0.40;;;;;;;;;;5031675;28;20091;-59
2024/02/05 05:42:08;;;;;;;2.10;0.40;;;;;;;;;;5029630;28;20021;-60
2024/02/05 05:44:33;;;;;;;1.35;0.43;;;;;;;;;;5021233;28;20030;-57
2024/02/05 05:47:00;;;;;;;1.95;0.50;;;;;;;;;;5020315;28;20034;-57
2024/02/05 05:49:25;;;;;;;3.47;0.40;;;;;;;;;;5025618;28;20048;-56
2024/02/05 05:51:51;;;;;;;3.40;0.50;;;;;;;;;;5030918;28;20073;-57
2024/02/05 05:54:16;;;;;;;1.50;0.40;;;;;;;;;;5017675;28;20050;-57
2024/02/05 05:56:41;;;;;;;1.98;0.50;;;;;;;;;;5030199;28;20021;-57
2024/02/05 05:59:06;;;;;;;1.50;0.45;;;;;;;;;;5021867;28;20044;-58
2024/02/05 06:01:35;;;;;;;2.53;0.40;;;;;;;;;;5020173;28;20383;-57
2024/02/05 06:04:00;;;;;;;2.00;0.47;;;;;;;;;;5014776;28;20043;-57
2024/02/05 06:06:25;;;;;;;2.20;0.70;;;;;;;;;;5014031;28;20524;-57
2024/02/05 06:08:50;;;;;;;1.27;0.40;;;;;;;;;;5020524;28;20026;-57
2024/02/05 06:11:15;;;;;;;2.60;0.90;;;;;;;;;;5027610;28;20124;-58
2024/02/05 06:13:41;;;;;;;2.85;0.63;;;;;;;;;;5020999;28;20030;-58
2024/02/05 06:16:08;;;;;;;1.23;0.40;;;;;;;;;;5026403;28;20482;-57
2024/02/05 06:18:33;;;;;;;1.40;0.43;;;;;;;;;;5021328;28;20506;-57
2024/02/05 06:20:58;;;;;;;1.17;0.40;;;;;;;;;;5021830;28;20533;-57
2024/02/05 06:23:25;;;;;;;1.17;0.40;;;;;;;;;;5018702;28;20172;-57
2024/02/05 06:25:51;;;;;;;2.45;0.47;;;;;;;;;;5036384;28;20006;-57
2024/02/05 06:28:17;;;;;;;2.40;0.50;;;;;;;;;;5043938;28;20083;-57
2024/02/05 06:30:47;;;;;;;1.42;0.45;;;;;;;;;;5044309;28;20014;-57
2024/02/05 06:33:12;;;;;;;1.50;0.50;;;;;;;;;;5039182;28;20018;-58
2024/02/05 06:35:38;;;;;;;2.00;0.60;;;;;;;;;;5034366;28;20121;-57
2024/02/05 06:38:03;;;;;;;3.07;0.50;;;;;;;;;;5023220;28;20022;-58
2024/02/05 06:40:28;;;;;;;2.42;0.60;;;;;;;;;;5016510;28;20435;-57
2024/02/05 06:42:53;;;;;;;3.27;0.57;;;;;;;;;;5019930;28;20136;-56
2024/02/05 06:45:18;;;;;;;1.00;0.40;;;;;;;;;;5024934;28;20540;-58
2024/02/05 06:47:44;;;;;;;3.97;0.90;;;;;;;;;;5021053;28;20079;-56
2024/02/05 06:50:10;;;;;;;1.87;0.57;;;;;;;;;;5029197;28;20080;-56
2024/02/05 06:52:35;;;;;;;2.42;0.60;;;;;;;;;;5020362;28;20013;-57
2024/02/05 06:55:00;;;;;;;1.65;0.32;;;;;;;;;;5024680;28;20036;-57
2024/02/05 06:57:25;;;;;;;3.22;0.68;;;;;;;;;;5030634;28;20040;-56
2024/02/05 06:59:50;;;;;;;2.25;0.50;;;;;;;;;;5019391;28;20477;-58
2024/02/05 07:02:15;;;;;;;2.47;0.47;;;;;;;;;;5022318;28;20025;-57
2024/02/05 07:04:40;;;;;;;3.53;0.50;;;;;;;;;;5027700;28;20040;-57
2024/02/05 07:07:06;;;;;;;2.15;0.60;;;;;;;;;;5026239;28;20079;-57
2024/02/05 07:09:32;;;;;;;3.72;0.73;;;;;;;;;;5022253;28;20041;-58
2024/02/05 07:11:58;;;;;;;1.23;0.40;;;;;;;;;;5016095;28;20112;-56
2024/02/05 07:14:23;;;;;;;2.08;0.43;;;;;;;;;;5028902;28;20033;-58
2024/02/05 07:16:48;;;;;;;2.77;0.60;;;;;;;;;;5019407;28;20418;-58
2024/02/05 07:19:13;;;;;;;1.85;0.50;;;;;;;;;;5015775;28;20040;-57
2024/02/05 07:21:38;;;;;;;2.83;0.60;;;;;;;;;;5027249;28;20037;-57
2024/02/05 07:24:04;;;;;;;1.65;0.55;;;;;;;;;;5028230;28;20738;-58
2024/02/05 07:26:34;;;;;;;2.25;1.17;;;;;;;;;;5027541;28;20163;-57
2024/02/05 07:28:59;;;;;;;2.15;0.65;;;;;;;;;;5027601;28;20067;-57
2024/02/05 07:31:24;;;;;;;5.97;1.00;;;;;;;;;;5026862;28;20034;-58
2024/02/05 07:33:49;;;;;;;4.93;0.90;;;;;;;;;;5026746;28;20144;-56
2024/02/05 07:36:14;;;;;;;3.25;0.80;;;;;;;;;;5027225;28;20021;-56
2024/02/05 07:38:39;;;;;;;3.17;0.80;;;;;;;;;;5031890;28;20114;-57
2024/02/05 07:41:05;;;;;;;4.60;1.10;;;;;;;;;;5028215;28;20048;-58
2024/02/05 07:43:31;;;;;;;4.23;0.90;;;;;;;;;;5030591;28;20024;-57
2024/02/05 07:45:57;;;;;;;;;;;;;;;;;;5030058;28;20517;-56
2024/02/05 07:48:22;;;;;;;3.50;0.90;;;;;;;;;;5030248;28;19913;-56
2024/02/05 07:50:47;;;;;;;5.63;1.13;;;;;;;;;;5031413;28;20418;-56
2024/02/05 07:53:12;;;;;;;4.15;1.00;;;;;;;;;;5030285;28;20437;-57
2024/02/05 07:55:39;;;;;;;4.03;0.93;;;;;;;;;;5031862;28;20018;-58
2024/02/05 07:58:04;;;;;;;4.78;1.38;;;;;;;;;;5031965;28;20068;-56
2024/02/05 08:00:30;;;;;;;4.13;0.82;;;;;;;;;;5029456;28;20033;-58
2024/02/05 08:02:55;;;;;;;5.77;1.10;;;;;;;;;;5023850;28;20025;-57
2024/02/05 08:05:21;;;;;;;6.40;1.05;;;;;;;;;;5028657;28;20025;-59
2024/02/05 08:07:46;;;;;;;4.40;1.05;;;;;;;;;;5023102;28;20393;-58
2024/02/05 08:10:11;;;;;;;5.30;0.95;;;;;;;;;;5031311;28;20025;-57
2024/02/05 08:12:39;;;;;;;4.97;1.40;;;;;;;;;;5028105;28;20107;-58
2024/02/05 08:15:04;;;;;;;7.53;1.80;;;;;;;;;;5026474;28;20051;-58
2024/02/05 08:17:29;;;;;;;5.77;1.23;;;;;;;;;;5031878;28;20374;-58
2024/02/05 08:19:54;;;;;;;9.30;1.45;;;;;;;;;;5033767;28;20086;-58
2024/02/05 08:22:25;;;;;;;7.85;1.38;;;;;;;;;;5027088;28;20053;-58
2024/02/05 08:24:50;;;;;;;5.25;1.27;;;;;;;;;;5022897;28;20512;-58
2024/02/05 08:27:15;;;;;;;6.53;2.03;;;;;;;;;;5029855;28;20049;-57
2024/02/05 08:29:40;;;;;;;6.10;1.23;;;;;;;;;;5030307;28;20030;-57
2024/02/05 08:32:06;;;;;;;8.60;1.20;;;;;;;;;;5027388;28;20144;-57
2024/02/05 08:34:32;;;;;;;3.10;0.85;;;;;;;;;;5027049;28;20029;-57
2024/02/05 08:36:57;;;;;;;6.63;1.10;;;;;;;;;;5029741;28;20422;-58
2024/02/05 08:39:23;;;;;;;7.07;1.40;;;;;;;;;;5027665;28;20139;-58
2024/02/05 08:41:48;;;;;;;6.80;1.38;;;;;;;;;;5030954;28;20025;-58
2024/02/05 08:44:13;;;;;;;7.45;1.40;;;;;;;;;;5031534;28;20043;-57
2024/02/05 08:46:39;;;;;;;6.33;1.57;;;;;;;;;;5029534;28;20059;-57
2024/02/05 08:49:04;;;;;;;6.25;1.40;;;;;;;;;;5032845;28;20022;-57
2024/02/05 08:51:31;;;;;;;6.38;1.20;;;;;;;;;;5033404;28;20029;-58
2024/02/05 08:53:57;;;;;;;10.32;2.35;;;;;;;;;;5031441;28;20032;-56
2024/02/05 08:56:22;;;;;;;6.53;1.40;;;;;;;;;;5033856;28;20034;-57
2024/02/05 08:58:47;;;;;;;5.53;1.23;;;;;;;;;;5037127;28;20033;-57
2024/02/05 09:01:14;;;;;;;5.87;1.23;;;;;;;;;;5034957;28;20462;-58
2024/02/05 09:03:40;;;;;;;7.15;1.20;;;;;;;;;;5033343;28;20021;-58
2024/02/05 09:06:05;;;;;;;5.18;1.15;;;;;;;;;;5035445;28;20381;-59
2024/02/05 09:08:31;;;;;;;4.80;1.23;;;;;;;;;;5035422;28;20064;-56
2024/02/05 09:10:56;;;;;;;7.00;1.52;;;;;;;;;;5035309;28;21305;-56
2024/02/05 09:13:21;;;;;;;7.50;1.52;;;;;;;;;;5032317;28;20532;-56
2024/02/05 09:15:46;;;;;;;5.85;1.40;;;;;;;;;;5037274;28;20017;-58
2024/02/05 09:18:13;;;;;;;10.53;1.37;;;;;;;;;;5039394;28;20029;-57
2024/02/05 09:20:38;;;;;;;7.10;1.70;;;;;;;;;;5041358;28;20049;-58
2024/02/05 09:23:04;;;;;;;6.18;1.40;;;;;;;;;;5044197;28;20017;-58
2024/02/05 09:25:29;;;;;;;8.52;1.52;;;;;;;;;;5044812;28;20021;-58
2024/02/05 09:27:54;;;;;;;6.43;1.48;;;;;;;;;;5048508;28;20104;-58
2024/02/05 09:30:21;;;;;;;49.65;8.02;;;;;;;;;;5041512;28;20083;-58
2024/02/05 09:32:48;;;;;;;7.90;1.70;;;;;;;;;;5034589;28;20049;-58
2024/02/05 09:35:13;;;;;;;7.70;1.70;;;;;;;;;;5034599;28;20113;-57
2024/02/05 09:37:38;;;;;;;8.10;1.60;;;;;;;;;;5029735;28;20029;-57
2024/02/05 09:40:04;;;;;;;9.80;1.52;;;;;;;;;;5034694;28;20100;-57
2024/02/05 09:42:29;;;;;;;7.65;1.58;;;;;;;;;;5034469;28;20017;-58
2024/02/05 09:44:54;;;;;;;4.35;1.50;;;;;;;;;;5035066;28;20048;-57
2024/02/05 09:47:21;;;;;;;8.37;1.57;;;;;;;;;;5037362;28;20013;-57
2024/02/05 09:49:48;;;;;;;9.18;1.75;;;;;;;;;;5041080;28;20017;-58
2024/02/05 09:52:14;;;;;;;9.52;1.52;;;;;;;;;;5041917;28;20279;-57
2024/02/05 09:54:41;;;;;;;8.55;1.65;;;;;;;;;;5038872;28;20120;-57
2024/02/05 09:57:10;;;;;;;8.75;1.85;;;;;;;;;;5042054;28;20037;-58
2024/02/05 09:59:35;;;;;;;6.60;1.42;;;;;;;;;;5044844;28;20703;-58
2024/02/05 10:02:06;;;;;;;9.65;1.90;;;;;;;;;;5038298;28;20038;-57
2024/02/05 10:04:33;;;;;;;10.05;1.65;;;;;;;;;;5031899;28;20496;-57
2024/02/05 10:06:59;;;;;;;6.88;2.00;;;;;;;;;;5032454;28;20103;-59
2024/02/05 10:09:25;;;;;;;8.95;1.80;;;;;;;;;;5032733;28;20064;-58
2024/02/05 10:11:51;;;;;;;8.88;1.80;;;;;;;;;;5033478;28;20022;-58
2024/02/05 10:14:16;;;;;;;7.07;1.55;;;;;;;;;;5032717;28;20021;-58
2024/02/05 10:16:46;;;;;;;6.32;1.40;;;;;;;;;;5037321;28;20017;-57
2024/02/05 10:19:11;;;;;;;8.27;2.00;;;;;;;;;;5038376;28;20088;-58
2024/02/05 10:21:36;;;;;;;8.98;2.28;;;;;;;;;;5044489;28;20037;-58
2024/02/05 10:24:01;;;;;;;13.23;2.20;;;;;;;;;;5045273;28;20033;-57
2024/02/05 10:26:27;;;;;;;8.23;1.30;;;;;;;;;;5031298;28;20401;-58
2024/02/05 10:28:52;;;;;;;11.15;2.38;;;;;;;;;;5033244;28;20021;-58
2024/02/05 10:31:17;;;;;;;8.93;2.00;;;;;;;;;;5032647;28;20091;-57
2024/02/05 10:33:43;;;;;;;12.80;1.90;;;;;;;;;;5033311;28;20025;-57
2024/02/05 10:36:08;;;;;;;8.00;2.13;;;;;;;;;;5033455;28;20024;-56
2024/02/05 10:38:36;;;;;;;8.38;1.70;;;;;;;;;;5033031;28;20029;-57
2024/02/05 10:41:03;;;;;;;8.13;1.70;;;;;;;;;;5031839;28;20389;-57
2024/02/05 10:43:29;;;;;;;11.32;2.42;;;;;;;;;;5032279;28;20029;-58
2024/02/05 10:45:57;;;;;;;9.45;2.70;;;;;;;;;;5032619;28;20014;-58
2024/02/05 10:48:23;;;;;;;11.00;2.47;;;;;;;;;;5031096;28;20029;-58
2024/02/05 10:50:49;;;;;;;12.05;1.90;;;;;;;;;;5032162;28;20104;-57
2024/02/05 10:53:15;;;;;;;13.80;2.50;;;;;;;;;;5031165;28;20500;-57
2024/02/05 10:55:40;;;;;;;9.15;2.30;;;;;;;;;;5032419;28;20013;-57
2024/02/05 10:58:06;;;;;;;12.27;2.20;;;;;;;;;;5029168;28;20566;-57
2024/02/05 11:00:31;;;;;;;11.63;2.03;;;;;;;;;;5030425;28;20029;-58
2024/02/05 11:03:20;;;;;;;15.40;2.30;;;;;;;;;;5028837;28;20053;-57
2024/02/05 11:05:53;;;;;;;10.27;2.15;;;;;;;;;;5029374;28;20120;-57
2024/02/05 11:08:19;;;;;;;16.33;4.18;;;;;;;;;;5032580;28;20040;-58
2024/02/05 11:10:44;;;;;;;;;;;;;;;;;;5029136;28;20021;-59
2024/02/05 11:13:20;;;;;;;14.63;2.00;;;;;;;;;;5032176;28;19982;-57
2024/02/05 11:15:47;;;;;;;14.25;2.10;;;;;;;;;;5027166;28;20485;-57
2024/02/05 11:18:12;;;;;;;;;;;;;;;;;;5033660;28;20033;-58
2024/02/05 11:20:39;;;;;;;11.05;1.75;;;;;;;;;;5040648;28;19978;-58
2024/02/05 11:23:05;;;;;;;8.73;1.80;;;;;;;;;;5044177;28;20108;-56
2024/02/05 11:25:31;;;;;;;6.60;1.88;;;;;;;;;;5046373;28;20033;-58
2024/02/05 11:27:56;;;;;;;9.15;2.20;;;;;;;;;;5048743;28;20063;-58
2024/02/05 11:30:21;;;;;;;9.25;2.08;;;;;;;;;;5050413;28;20014;-59
2024/02/05 11:32:47;;;;;;;11.77;1.80;;;;;;;;;;5049066;28;20064;-57
2024/02/05 11:35:16;;;;;;;12.70;2.58;;;;;;;;;;5045716;28;20018;-58
2024/02/05 11:37:43;;;;;;;12.32;1.80;;;;;;;;;;5029686;28;20029;-57
2024/02/05 11:40:18;;;;;;;15.18;2.33;;;;;;;;;;5032620;28;20034;-58
2024/02/05 11:42:43;;;;;;;14.93;2.90;;;;;;;;;;5031992;28;20072;-57
2024/02/05 11:45:09;;;;;;;10.33;1.97;;;;;;;;;;5030410;28;20017;-57
2024/02/05 11:47:35;;;;;;;13.68;2.22;;;;;;;;;;5030939;28;20568;-57
2024/02/05 11:50:02;;;;;;;14.13;2.13;;;;;;;;;;5028803;28;20492;-58
2024/02/05 11:52:27;;;;;;;11.30;2.28;;;;;;;;;;5029890;28;20493;-58
2024/02/05 11:54:53;;;;;;;8.30;1.80;;;;;;;;;;5031589;28;20043;-59
2024/02/05 11:57:18;;;;;;;10.38;1.70;;;;;;;;;;5032030;28;20059;-58
2024/02/05 11:59:44;;;;;;;14.80;2.50;;;;;;;;;;5026920;28;20393;-56
2024/02/05 12:02:10;;;;;;;10.02;2.35;;;;;;;;;;5027241;28;20033;-58
2024/02/05 12:04:35;;;;;;;10.87;2.53;;;;;;;;;;5031093;28;20037;-57
2024/02/05 12:07:01;;;;;;;10.48;2.00;;;;;;;;;;5029080;28;20506;-57
2024/02/05 12:09:26;;;;;;;13.13;2.05;;;;;;;;;;5031926;28;20112;-58
2024/02/05 12:11:52;;;;;;;12.50;2.20;;;;;;;;;;5032418;28;20053;-58
2024/02/05 12:14:17;;;;;;;13.33;2.87;;;;;;;;;;5034168;28;20421;-58
2024/02/05 12:16:42;;;;;;;22.30;4.03;;;;;;;;;;5037279;28;20037;-57
2024/02/05 12:19:09;;;;;;;10.67;2.00;;;;;;;;;;5036767;28;20025;-57
2024/02/05 12:21:34;;;;;;;;;;;;;;;;;;5034444;28;20051;-57
2024/02/05 12:23:59;;;;;;;7.68;2.00;;;;;;;;;;5032389;28;19913;-57
2024/02/05 12:26:27;;;;;;;10.73;2.60;;;;;;;;;;5031556;28;20048;-58
2024/02/05 12:28:53;;;;;;;11.30;1.90;;;;;;;;;;5030878;28;20021;-58
2024/02/05 12:31:19;;;;;;;16.48;2.40;;;;;;;;;;5031002;28;20152;-57
2024/02/05 12:33:47;;;;;;;10.93;2.42;;;;;;;;;;5031064;28;20021;-57
2024/02/05 12:36:13;;;;;;;13.93;2.45;;;;;;;;;;5030883;28;20148;-57
2024/02/05 12:38:38;;;;;;;9.10;1.80;;;;;;;;;;5031018;28;20049;-57
2024/02/05 12:41:03;;;;;;;19.15;3.88;;;;;;;;;;5030950;28;20030;-58
2024/02/05 12:43:29;;;;;;;13.93;2.80;;;;;;;;;;5029594;28;20079;-59
2024/02/05 12:45:55;;;;;;;9.95;1.50;;;;;;;;;;5030270;28;20471;-58
2024/02/05 12:48:22;;;;;;;8.57;1.75;;;;;;;;;;5030893;28;20025;-57
2024/02/05 12:50:47;;;;;;;9.23;1.70;;;;;;;;;;5030619;28;20200;-57
2024/02/05 12:53:12;;;;;;;12.40;2.30;;;;;;;;;;5030347;28;20136;-58
2024/02/05 12:55:37;;;;;;;11.13;1.90;;;;;;;;;;5028808;28;20020;-58
2024/02/05 12:58:03;;;;;;;11.10;2.60;;;;;;;;;;5029583;28;20076;-57
2024/02/05 13:00:28;;;;;;;8.52;2.10;;;;;;;;;;5030258;28;20052;-57
2024/02/05 13:03:03;;;;;;;11.65;2.35;;;;;;;;;;5030379;28;20030;-57
2024/02/05 13:05:28;;;;;;;10.57;2.20;;;;;;;;;;5030454;28;20095;-56
2024/02/05 13:07:53;;;;;;;10.68;1.83;;;;;;;;;;5029076;28;20464;-57
2024/02/05 13:10:20;;;;;;;9.13;1.70;;;;;;;;;;5030589;28;20033;-57
2024/02/05 13:12:46;;;;;;;;;;;;;;;;;;5029461;28;20017;-58
2024/02/05 13:15:11;;;;;;;9.20;1.77;;;;;;;;;;5026057;28;19955;-58
2024/02/05 13:17:39;;;;;;;13.40;1.83;;;;;;;;;;5026484;28;20512;-57
2024/02/05 13:20:06;;;;;;;9.52;1.73;;;;;;;;;;5030327;28;20030;-56
2024/02/05 13:22:31;;;;;;;12.23;2.25;;;;;;;;;;5030392;28;20056;-57
2024/02/05 13:24:58;;;;;;;9.82;2.60;;;;;;;;;;5021472;28;20533;-57
2024/02/05 13:27:23;;;;;;;10.23;1.70;;;;;;;;;;5030285;28;20659;-57
2024/02/05 13:29:48;;;;;;;7.20;1.50;;;;;;;;;;5027134;28;20116;-58
2024/02/05 13:32:14;;;;;;;11.80;2.20;;;;;;;;;;5027155;28;20020;-58
2024/02/05 13:34:42;;;;;;;9.85;1.90;;;;;;;;;;5027501;28;20367;-57
2024/02/05 13:37:09;;;;;;;9.55;1.92;;;;;;;;;;5027658;28;20025;-57
2024/02/05 13:39:34;;;;;;;10.77;1.58;;;;;;;;;;5026129;28;20024;-58
2024/02/05 13:42:03;;;;;;;12.70;2.33;;;;;;;;;;5030727;28;20034;-57
2024/02/05 13:44:28;;;;;;;7.88;1.60;;;;;;;;;;5035126;28;20031;-57
2024/02/05 13:46:53;;;;;;;8.20;1.60;;;;;;;;;;5037403;28;20077;-58
2024/02/05 13:49:20;;;;;;;8.15;1.67;;;;;;;;;;5034457;28;20544;-57
2024/02/05 13:51:47;;;;;;;9.13;1.85;;;;;;;;;;5032843;28;20079;-59
2024/02/05 13:54:12;;;;;;;10.43;1.70;;;;;;;;;;5033465;28;20104;-57
2024/02/05 13:56:38;;;;;;;9.65;1.45;;;;;;;;;;5033796;28;20447;-57
2024/02/05 13:59:03;;;;;;;10.75;1.50;;;;;;;;;;5033504;28;20026;-58
2024/02/05 14:01:28;;;;;;;8.83;1.40;;;;;;;;;;5033515;28;20057;-57
2024/02/05 14:03:54;;;;;;;10.82;2.17;;;;;;;;;;5033359;28;20432;-58
2024/02/05 14:06:19;;;;;;;8.20;1.88;;;;;;;;;;5033604;28;20049;-58
2024/02/05 14:08:44;;;;;;;9.10;1.80;;;;;;;;;;5029665;28;20010;-57
2024/02/05 14:11:09;;;;;;;11.93;1.70;;;;;;;;;;5032810;28;20813;-57
2024/02/05 14:13:34;;;;;;;8.97;1.80;;;;;;;;;;5041698;28;20321;-58
2024/02/05 14:15:59;;;;;;;13.82;2.33;;;;;;;;;;5042786;28;20366;-58
2024/02/05 14:18:25;;;;;;;7.55;1.45;;;;;;;;;;5042538;28;20381;-58
2024/02/05 14:20:50;;;;;;;10.93;1.63;;;;;;;;;;5042043;28;20037;-58
2024/02/05 14:23:15;;;;;;;12.13;1.70;;;;;;;;;;5033493;28;20028;-59
2024/02/05 14:25:41;;;;;;;9.03;1.73;;;;;;;;;;5032059;28;20487;-58
2024/02/05 14:28:06;;;;;;;9.57;1.40;;;;;;;;;;5029490;28;20194;-58
2024/02/05 14:30:31;;;;;;;9.48;1.50;;;;;;;;;;5027833;28;20025;-57
2024/02/05 14:32:56;;;;;;;9.05;1.85;;;;;;;;;;5032716;28;20431;-58
2024/02/05 14:35:22;;;;;;;10.93;1.92;;;;;;;;;;5034104;28;20036;-58